Time;durP1;ratioP1;P1;durP2;ratioP2;P2;SDS_P1;SDS_P2;PMS_P1;PMS_P2;Temp;Humidity;BMP_temperature;BMP_pressure;BME280_temperature;BME280_humidity;BME280_pressure;Samples;Min_cycle;Max_cycle;Signal;HPM_P1;HPM_P2
2021/10/16 00:00:06;;;;;;;;;;;;;;;;;;2084623;28;1032;-84
2021/10/16 00:01:14;;;;;;;;;;;;;;;;;;2092741;28;726;-84
2021/10/16 00:02:16;;;;;;;;;;;;;;;;;;2084449;28;1274;-85
2021/10/16 00:03:17;;;;;;;;;;;;;;;;;;2084143;28;1232;-85
2021/10/16 00:04:20;;;;;;;;;;;;;;;;;;2084644;28;1231;-85
2021/10/16 00:05:21;;;;;;;;;;;;;;;;;;2075907;28;1261;-85
2021/10/16 00:06:23;;;;;;;;;;;;;;;;;;2076307;28;1224;-85
2021/10/16 00:07:24;;;;;;;;;;;;;;;;;;2084399;28;1925;-85
2021/10/16 00:08:25;;;;;;;;;;;;;;;;;;2092831;28;1216;-85
2021/10/16 00:09:26;;;;;;;;;;;;;;;;;;2083757;28;1296;-85
2021/10/16 00:10:28;;;;;;;;;;;;;;;;;;2076207;28;1522;-85
2021/10/16 00:11:30;;;;;;;;;;;;;;;;;;2076308;28;1910;-85
2021/10/16 00:12:32;;;;;;;;;;;;;;;;;;2076440;28;1224;-85
2021/10/16 00:13:34;;;;;;;;;;;;;;;;;;2084787;28;962;-85
2021/10/16 00:14:36;;;;;;;;;;;;;;;;;;2083881;28;1333;-85
2021/10/16 00:15:37;;;;;;;;;;;;;;;;;;2078292;28;2103;-85
2021/10/16 00:16:39;;;;;;;;;;;;;;;;;;2084135;28;1256;-85
2021/10/16 00:17:39;;;;;;;;;;;;;;;;;;2086691;28;2022;-85
2021/10/16 00:18:41;;;;;;;;;;;;;;;;;;2084367;28;1277;-84
2021/10/16 00:19:42;;;;;;;;;;;;;;;;;;2084444;28;1235;-85
2021/10/16 00:20:44;;;;;;;;;;;;;;;;;;2087287;28;2059;-85
2021/10/16 00:21:45;;;;;;;;;;;;;;;;;;2090649;28;1409;-85
2021/10/16 00:22:46;;;;;;;;;;;;;;;;;;2086764;28;1275;-86
2021/10/16 00:23:47;;;;;;;;;;;;;;;;;;2092616;28;1357;-85
2021/10/16 00:24:49;;;;;;;;;;;;;;;;;;2092238;28;1373;-85
2021/10/16 00:25:50;;;;;;;;;;;;;;;;;;2092337;28;2063;-85
2021/10/16 00:26:53;;;;;;;;;;;;;;;;;;2092496;28;1393;-85
2021/10/16 00:27:55;;;;;;;;;;;;;;;;;;2076715;28;2133;-85
2021/10/16 00:28:57;;;;;;;;;;;;;;;;;;2084518;28;1199;-85
2021/10/16 00:29:58;;;;;;;;;;;;;;;;;;2084402;28;1217;-85
2021/10/16 00:31:00;;;;;;;;;;;;;;;;;;2091944;28;1298;-85
2021/10/16 00:32:01;;;;;;;;;;;;;;;;;;2083849;28;1906;-85
2021/10/16 00:33:03;;;;;;;;;;;;;;;;;;2083728;28;1260;-85
2021/10/16 00:34:04;;;;;;;;;;;;;;;;;;2084225;28;1252;-85
2021/10/16 00:35:05;;;;;;;;;;;;;;;;;;2083916;28;1373;-85
2021/10/16 00:36:06;;;;;;;;;;;;;;;;;;2084346;28;1249;-85
2021/10/16 00:37:08;;;;;;;;;;;;;;;;;;2075540;28;1858;-85
2021/10/16 00:38:09;;;;;;;;;;;;;;;;;;2084358;28;1197;-85
2021/10/16 00:39:11;;;;;;;;;;;;;;;;;;2092191;28;1235;-85
2021/10/16 00:40:12;;;;;;;;;;;;;;;;;;2084654;28;1641;-85
2021/10/16 00:41:14;;;;;;;;;;;;;;;;;;2075824;28;2049;-86
2021/10/16 00:42:16;;;;;;;;;;;;;;;;;;2076383;28;1332;-86
2021/10/16 00:43:18;;;;;;;;;;;;;;;;;;2084126;28;1206;-86
2021/10/16 00:44:19;;;;;;;;;;;;;;;;;;2084143;28;1238;-85
2021/10/16 00:45:22;;;;;;;;;;;;;;;;;;2083267;28;2072;-84
2021/10/16 00:46:23;;;;;;;;;;;;;;;;;;2075738;28;1284;-85
2021/10/16 00:47:26;;;;;;;;;;;;;;;;;;2078873;28;1311;-85
2021/10/16 00:48:27;;;;;;;;;;;;;;;;;;2092404;28;1349;-85
2021/10/16 00:49:30;;;;;;;;;;;;;;;;;;2092054;28;1380;-85
2021/10/16 00:50:31;;;;;;;;;;;;;;;;;;2083682;28;1488;-85
2021/10/16 00:51:33;;;;;;;;;;;;;;;;;;2083985;28;1240;-85
2021/10/16 00:52:34;;;;;;;;;;;;;;;;;;2092015;28;2053;-85
2021/10/16 00:53:37;;;;;;;;;;;;;;;;;;2084125;28;1305;-85
2021/10/16 00:54:39;;;;;;;;;;;;;;;;;;2092003;28;1177;-85
2021/10/16 00:55:41;;;;;;;;;;;;;;;;;;2091844;28;1220;-85
2021/10/16 00:56:43;;;;;;;;;;;;;;;;;;2092031;28;1390;-85
2021/10/16 00:57:47;;;;;;;;;;;;;;;;;;2083800;28;1299;-85
2021/10/16 00:58:47;;;;;;;;;;;;;;;;;;2083891;28;1246;-86
2021/10/16 00:59:50;;;;;;;;;;;;;;;;;;2092219;28;1294;-86
2021/10/16 01:00:52;;;;;;;;;;;;;;;;;;2084340;28;1302;-85
2021/10/16 01:01:54;;;;;;;;;;;;;;;;;;2076177;28;1368;-85
2021/10/16 01:02:56;;;;;;;;;;;;;;;;;;2075934;28;2027;-85
2021/10/16 01:03:58;;;;;;;;;;;;;;;;;;2083616;28;1345;-85
2021/10/16 01:05:00;;;;;;;;;;;;;;;;;;2092200;28;1374;-85
2021/10/16 01:06:03;;;;;;;;;;;;;;;;;;2084211;28;1393;-85
2021/10/16 01:07:07;;;;;;;;;;;;;;;;;;2084084;28;1224;-85
2021/10/16 01:08:10;;;;;;;;;;;;;;;;;;2084483;28;1715;-85
2021/10/16 01:09:11;;;;;;;;;;;;;;;;;;2083980;28;1268;-85
2021/10/16 01:10:13;;;;;;;;;;;;;;;;;;2075661;28;1354;-85
2021/10/16 01:11:14;;;;;;;;;;;;;;;;;;2075050;28;1275;-85
2021/10/16 01:12:17;;;;;;;;;;;;;;;;;;2084140;28;1977;-85
2021/10/16 01:13:19;;;;;;;;;;;;;;;;;;2075653;28;1266;-85
2021/10/16 01:14:21;;;;;;;;;;;;;;;;;;2076272;28;1221;-85
2021/10/16 01:15:24;;;;;;;;;;;;;;;;;;2092341;28;1235;-85
2021/10/16 01:16:26;;;;;;;;;;;;;;;;;;2092387;28;1420;-85
2021/10/16 01:17:26;;;;;;;;;;;;;;;;;;2083523;28;1208;-85
2021/10/16 01:18:29;;;;;;;;;;;;;;;;;;2084376;28;1251;-85
2021/10/16 01:19:31;;;;;;;;;;;;;;;;;;2091438;28;1251;-85
2021/10/16 01:20:34;;;;;;;;;;;;;;;;;;2092144;28;1327;-85
2021/10/16 01:21:40;;;;;;;;;;;;;;;;;;2083599;28;1232;-85
2021/10/16 01:22:43;;;;;;;;;;;;;;;;;;2084246;28;1979;-85
2021/10/16 01:23:44;;;;;;;;;;;;;;;;;;2083467;28;1384;-84
2021/10/16 01:24:46;;;;;;;;;;;;;;;;;;2075339;28;1367;-84
2021/10/16 01:25:50;;;;;;;;;;;;;;;;;;2083869;28;885;-84
2021/10/16 01:26:52;;;;;;;;;;;;;;;;;;2092204;28;1375;-84
2021/10/16 01:27:54;;;;;;;;;;;;;;;;;;2092178;28;825;-84
2021/10/16 01:28:56;;;;;;;;;;;;;;;;;;2091866;28;1253;-84
2021/10/16 01:29:56;;;;;;;;;;;;;;;;;;2083821;28;1374;-84
2021/10/16 01:30:59;;;;;;;;;;;;;;;;;;2083331;28;1289;-83
2021/10/16 01:32:00;;;;;;;;;;;;;;;;;;2075595;28;1910;-84
2021/10/16 01:33:02;;;;;;;;;;;;;;;;;;2075504;28;1387;-84
2021/10/16 01:34:03;;;;;;;;;;;;;;;;;;2083686;28;1488;-84
2021/10/16 01:35:07;;;;;;;;;;;;;;;;;;2083579;28;934;-84
2021/10/16 01:36:08;;;;;;;;;;;;;;;;;;2090976;28;885;-84
2021/10/16 01:37:11;;;;;;;;;;;;;;;;;;2091667;28;1395;-84
2021/10/16 01:38:16;;;;;;;;;;;;;;;;;;2084349;28;1304;-85
2021/10/16 01:39:18;;;;;;;;;;;;;;;;;;2075731;28;1418;-86
2021/10/16 01:40:20;;;;;;;;;;;;;;;;;;2075966;28;1585;-85
2021/10/16 01:41:21;;;;;;;;;;;;;;;;;;2078232;28;1448;-84
2021/10/16 01:42:23;;;;;;;;;;;;;;;;;;2078591;28;1582;-85
2021/10/16 01:43:32;;;;;;;;;;;;;;;;;;2083759;28;1256;-84
2021/10/16 01:44:34;;;;;;;;;;;;;;;;;;2075503;28;1423;-84
2021/10/16 01:45:35;;;;;;;;;;;;;;;;;;2075660;28;1355;-85
2021/10/16 01:46:39;;;;;;;;;;;;;;;;;;2075604;28;1278;-85
2021/10/16 01:47:45;;;;;;;;;;;;;;;;;;2075667;28;1313;-85
2021/10/16 01:48:47;;;;;;;;;;;;;;;;;;2075313;28;1256;-86
2021/10/16 01:49:48;;;;;;;;;;;;;;;;;;2067451;28;1138;-85
2021/10/16 01:50:51;;;;;;;;;;;;;;;;;;2075839;28;2076;-85
2021/10/16 01:51:57;;;;;;;;;;;;;;;;;;2075426;28;1088;-85
2021/10/16 01:53:09;;;;;;;;;;;;;;;;;;2076175;28;1915;-84
2021/10/16 01:54:11;;;;;;;;;;;;;;;;;;2075740;28;1673;-85
2021/10/16 01:55:15;;;;;;;;;;;;;;;;;;2075531;28;1312;-85
2021/10/16 01:56:16;;;;;;;;;;;;;;;;;;2083829;28;1291;-84
2021/10/16 01:57:21;;;;;;;;;;;;;;;;;;2083688;28;1425;-85
2021/10/16 01:58:29;;;;;;;;;;;;;;;;;;2067565;28;957;-84
2021/10/16 02:00:05;;;;;;;;;;;;;;;;;;2065564;28;1369;-84
2021/10/16 02:01:06;;;;;;;;;;;;;;;;;;2083453;28;1477;-85
2021/10/16 02:02:08;;;;;;;;;;;;;;;;;;2084493;28;2194;-84
2021/10/16 02:03:14;;;;;;;;;;;;;;;;;;2083627;28;1290;-84
2021/10/16 02:04:32;;;;;;;;;;;;;;;;;;2077576;28;1703;-84
2021/10/16 02:05:33;;;;;;;;;;;;;;;;;;2083097;28;1247;-84
2021/10/16 02:07:10;;;;;;;;;;;;;;;;;;2078167;28;1312;-84
2021/10/16 02:08:13;;;;;;;;;;;;;;;;;;2083543;28;1483;-85
2021/10/16 02:09:15;;;;;;;;;;;;;;;;;;2075347;28;1252;-85
2021/10/16 02:10:16;;;;;;;;;;;;;;;;;;2075521;28;1237;-85
2021/10/16 02:11:19;;;;;;;;;;;;;;;;;;2083661;28;1189;-85
2021/10/16 02:12:28;;;;;;;;;;;;;;;;;;2076787;28;1906;-85
2021/10/16 02:13:29;;;;;;;;;;;;;;;;;;2075311;28;1315;-85
2021/10/16 02:14:39;;;;;;;;;;;;;;;;;;2084935;28;1374;-85
2021/10/16 02:15:43;;;;;;;;;;;;;;;;;;2083659;28;1280;-84
2021/10/16 02:16:59;;;;;;;;;;;;;;;;;;2085462;28;1390;-85
2021/10/16 02:18:00;;;;;;;;;;;;;;;;;;2083286;28;1407;-85
2021/10/16 02:19:02;;;;;;;;;;;;;;;;;;2083250;28;1405;-85
2021/10/16 02:20:06;;;;;;;;;;;;;;;;;;2083881;28;1383;-85
2021/10/16 02:21:07;;;;;;;;;;;;;;;;;;2083540;28;1309;-85
2021/10/16 02:22:10;;;;;;;;;;;;;;;;;;2091224;28;979;-85
2021/10/16 02:23:13;;;;;;;;;;;;;;;;;;2075116;28;1320;-85
2021/10/16 02:24:15;;;;;;;;;;;;;;;;;;2075459;28;1295;-85
2021/10/16 02:25:17;;;;;;;;;;;;;;;;;;2075275;28;1514;-85
2021/10/16 02:26:19;;;;;;;;;;;;;;;;;;2075012;28;1434;-85
2021/10/16 02:27:23;;;;;;;;;;;;;;;;;;2083479;28;1208;-85
2021/10/16 02:28:26;;;;;;;;;;;;;;;;;;2083289;28;1314;-85
2021/10/16 02:29:41;;;;;;;;;;;;;;;;;;2083439;28;1224;-85
2021/10/16 02:30:43;;;;;;;;;;;;;;;;;;2078240;28;1349;-85
2021/10/16 02:31:45;;;;;;;;;;;;;;;;;;2083163;28;1411;-84
2021/10/16 02:32:45;;;;;;;;;;;;;;;;;;2083072;28;2094;-85
2021/10/16 02:33:47;;;;;;;;;;;;;;;;;;2082945;28;1358;-84
2021/10/16 02:34:49;;;;;;;;;;;;;;;;;;2083020;28;1125;-84
2021/10/16 02:35:55;;;;;;;;;;;;;;;;;;2083954;28;1411;-84
2021/10/16 02:36:56;;;;;;;;;;;;;;;;;;2091107;28;1246;-84
2021/10/16 02:37:59;;;;;;;;;;;;;;;;;;2091689;28;1683;-84
2021/10/16 02:39:01;;;;;;;;;;;;;;;;;;2075357;28;1291;-84
2021/10/16 02:40:10;;;;;;;;;;;;;;;;;;2083593;28;682;-85
2021/10/16 02:41:11;;;;;;;;;;;;;;;;;;2091342;28;1192;-85
2021/10/16 02:42:13;;;;;;;;;;;;;;;;;;2090382;28;1374;-84
2021/10/16 02:43:14;;;;;;;;;;;;;;;;;;2083044;28;1160;-84
2021/10/16 02:44:16;;;;;;;;;;;;;;;;;;2083116;28;1547;-84
2021/10/16 02:45:19;;;;;;;;;;;;;;;;;;2075096;28;1333;-85
2021/10/16 02:46:21;;;;;;;;;;;;;;;;;;2075021;28;1164;-84
2021/10/16 02:47:21;;;;;;;;;;;;;;;;;;2074474;28;1462;-85
2021/10/16 02:48:23;;;;;;;;;;;;;;;;;;2074531;28;1281;-84
2021/10/16 02:49:24;;;;;;;;;;;;;;;;;;2074650;28;1320;-84
2021/10/16 02:50:26;;;;;;;;;;;;;;;;;;2072131;28;1539;-85
2021/10/16 02:51:27;;;;;;;;;;;;;;;;;;2083289;28;1226;-84
2021/10/16 02:52:29;;;;;;;;;;;;;;;;;;2082989;28;1967;-85
2021/10/16 02:53:30;;;;;;;;;;;;;;;;;;2075134;28;1227;-84
2021/10/16 02:54:42;;;;;;;;;;;;;;;;;;2074940;28;1183;-84
2021/10/16 02:55:43;;;;;;;;;;;;;;;;;;2076335;28;1173;-85
2021/10/16 02:56:45;;;;;;;;;;;;;;;;;;2083095;28;1328;-84
2021/10/16 02:57:47;;;;;;;;;;;;;;;;;;2083241;28;1206;-85
2021/10/16 02:58:49;;;;;;;;;;;;;;;;;;2083337;28;1310;-88
2021/10/16 02:59:51;;;;;;;;;;;;;;;;;;2083559;28;1168;-89
2021/10/16 03:00:53;;;;;;;;;;;;;;;;;;2083220;28;1219;-88
2021/10/16 03:01:54;;;;;;;;;;;;;;;;;;2083151;28;1294;-88
2021/10/16 03:03:02;;;;;;;;;;;;;;;;;;2075611;28;1613;-88
2021/10/16 03:04:03;;;;;;;;;;;;;;;;;;2083006;28;1539;-88
2021/10/16 03:05:12;;;;;;;;;;;;;;;;;;2075728;28;1377;-88
2021/10/16 03:06:13;;;;;;;;;;;;;;;;;;2082793;28;1375;-87
2021/10/16 03:07:16;;;;;;;;;;;;;;;;;;2076678;28;2011;-87
2021/10/16 03:08:19;;;;;;;;;;;;;;;;;;2084207;28;1354;-87
2021/10/16 03:09:21;;;;;;;;;;;;;;;;;;2082990;28;1295;-87
2021/10/16 03:10:23;;;;;;;;;;;;;;;;;;2082736;28;1236;-87
2021/10/16 03:11:26;;;;;;;;;;;;;;;;;;2083321;28;1212;-87
2021/10/16 03:12:27;;;;;;;;;;;;;;;;;;2081714;28;1214;-88
2021/10/16 03:13:35;;;;;;;;;;;;;;;;;;2091397;28;1461;-87
2021/10/16 03:14:39;;;;;;;;;;;;;;;;;;2091445;28;1373;-87
2021/10/16 03:15:40;;;;;;;;;;;;;;;;;;2082582;28;1196;-86
2021/10/16 03:16:42;;;;;;;;;;;;;;;;;;2091306;28;1318;-85
2021/10/16 03:17:44;;;;;;;;;;;;;;;;;;2082974;28;1337;-85
2021/10/16 03:18:48;;;;;;;;;;;;;;;;;;2083573;28;1217;-85
2021/10/16 03:19:48;;;;;;;;;;;;;;;;;;2074581;28;1376;-85
2021/10/16 03:20:52;;;;;;;;;;;;;;;;;;2075822;28;1303;-85
2021/10/16 03:21:53;;;;;;;;;;;;;;;;;;2083108;28;1219;-85
2021/10/16 03:23:07;;;;;;;;;;;;;;;;;;2074830;28;1271;-85
2021/10/16 03:24:09;;;;;;;;;;;;;;;;;;2075869;28;1384;-85
2021/10/16 03:25:10;;;;;;;;;;;;;;;;;;2082534;28;1168;-85
2021/10/16 03:26:13;;;;;;;;;;;;;;;;;;2066813;28;1197;-85
2021/10/16 03:27:15;;;;;;;;;;;;;;;;;;2066800;28;1271;-86
2021/10/16 03:28:16;;;;;;;;;;;;;;;;;;2074996;28;1360;-85
2021/10/16 03:29:17;;;;;;;;;;;;;;;;;;2082479;28;1387;-85
2021/10/16 03:30:20;;;;;;;;;;;;;;;;;;2083211;28;1422;-86
2021/10/16 03:31:20;;;;;;;;;;;;;;;;;;2066647;28;1341;-86
2021/10/16 03:32:22;;;;;;;;;;;;;;;;;;2069436;28;2186;-85
2021/10/16 03:33:24;;;;;;;;;;;;;;;;;;2074939;28;1910;-86
2021/10/16 03:34:27;;;;;;;;;;;;;;;;;;2074049;28;1256;-85
2021/10/16 03:35:29;;;;;;;;;;;;;;;;;;2083341;28;1191;-86
2021/10/16 03:36:31;;;;;;;;;;;;;;;;;;2083004;28;1386;-86
2021/10/16 03:37:32;;;;;;;;;;;;;;;;;;2078307;28;1480;-85
2021/10/16 03:38:34;;;;;;;;;;;;;;;;;;2082980;28;1303;-85
2021/10/16 03:39:34;;;;;;;;;;;;;;;;;;2082365;28;1274;-85
2021/10/16 03:40:36;;;;;;;;;;;;;;;;;;2082658;28;1216;-86
2021/10/16 03:41:41;;;;;;;;;;;;;;;;;;2074635;28;1342;-86
2021/10/16 03:42:43;;;;;;;;;;;;;;;;;;2058600;28;1401;-86
2021/10/16 03:43:50;;;;;;;;;;;;;;;;;;2068693;28;1564;-85
2021/10/16 03:44:52;;;;;;;;;;;;;;;;;;2082457;28;1310;-86
2021/10/16 03:45:53;;;;;;;;;;;;;;;;;;2077809;28;1224;-85
2021/10/16 03:46:55;;;;;;;;;;;;;;;;;;2083110;28;1406;-85
2021/10/16 03:47:56;;;;;;;;;;;;;;;;;;2082247;28;1276;-86
2021/10/16 03:48:58;;;;;;;;;;;;;;;;;;2082684;28;1333;-86
2021/10/16 03:50:00;;;;;;;;;;;;;;;;;;2074885;28;1321;-86
2021/10/16 03:51:03;;;;;;;;;;;;;;;;;;2077951;28;1192;-85
2021/10/16 03:52:05;;;;;;;;;;;;;;;;;;2075880;28;1296;-86
2021/10/16 03:53:08;;;;;;;;;;;;;;;;;;2082700;28;1910;-85
2021/10/16 03:54:09;;;;;;;;;;;;;;;;;;2082904;28;1169;-85
2021/10/16 03:55:12;;;;;;;;;;;;;;;;;;2082936;28;1317;-86
2021/10/16 03:56:12;;;;;;;;;;;;;;;;;;2082553;28;1343;-85
2021/10/16 03:57:16;;;;;;;;;;;;;;;;;;2074885;28;1398;-86
2021/10/16 03:58:17;;;;;;;;;;;;;;;;;;2067109;28;1417;-86
2021/10/16 03:59:22;;;;;;;;;;;;;;;;;;2066740;28;1208;-85
2021/10/16 04:00:22;;;;;;;;;;;;;;;;;;2075528;28;1235;-86
2021/10/16 04:01:32;;;;;;;;;;;;;;;;;;2074862;28;1211;-85
2021/10/16 04:02:33;;;;;;;;;;;;;;;;;;2075568;28;1308;-86
2021/10/16 04:03:36;;;;;;;;;;;;;;;;;;2082694;28;1068;-85
2021/10/16 04:04:37;;;;;;;;;;;;;;;;;;2074577;28;1240;-85
2021/10/16 04:05:39;;;;;;;;;;;;;;;;;;2074597;28;1283;-86
2021/10/16 04:06:41;;;;;;;;;;;;;;;;;;2082937;28;1349;-86
2021/10/16 04:07:42;;;;;;;;;;;;;;;;;;2082556;28;1187;-86
2021/10/16 04:08:44;;;;;;;;;;;;;;;;;;2075253;28;1345;-85
2021/10/16 04:09:45;;;;;;;;;;;;;;;;;;2082947;28;1292;-85
2021/10/16 04:10:46;;;;;;;;;;;;;;;;;;2083048;28;1204;-86
2021/10/16 04:11:48;;;;;;;;;;;;;;;;;;2082696;28;1418;-86
2021/10/16 04:12:51;;;;;;;;;;;;;;;;;;2074389;28;1477;-86
2021/10/16 04:13:53;;;;;;;;;;;;;;;;;;2074610;28;1914;-86
2021/10/16 04:14:54;;;;;;;;;;;;;;;;;;2074710;28;1399;-86
2021/10/16 04:16:00;;;;;;;;;;;;;;;;;;2074878;28;1338;-86
2021/10/16 04:17:04;;;;;;;;;;;;;;;;;;2074786;28;1277;-87
2021/10/16 04:18:07;;;;;;;;;;;;;;;;;;2083326;28;1406;-86
2021/10/16 04:19:08;;;;;;;;;;;;;;;;;;2082759;28;1315;-87
2021/10/16 04:20:11;;;;;;;;;;;;;;;;;;2074556;28;1312;-86
2021/10/16 04:21:18;;;;;;;;;;;;;;;;;;2074505;28;2122;-86
2021/10/16 04:22:22;;;;;;;;;;;;;;;;;;2074637;28;1378;-86
2021/10/16 04:23:24;;;;;;;;;;;;;;;;;;2074585;28;1193;-86
2021/10/16 04:24:26;;;;;;;;;;;;;;;;;;2066937;28;1338;-86
2021/10/16 04:25:27;;;;;;;;;;;;;;;;;;2066677;28;1200;-86
2021/10/16 04:26:28;;;;;;;;;;;;;;;;;;2066410;28;1216;-86
2021/10/16 04:27:29;;;;;;;;;;;;;;;;;;2066293;28;1322;-86
2021/10/16 04:28:45;;;;;;;;;;;;;;;;;;2066911;28;1040;-86
2021/10/16 04:29:55;;;;;;;;;;;;;;;;;;2060189;28;1209;-86
2021/10/16 04:31:07;;;;;;;;;;;;;;;;;;2073715;28;1847;-86
2021/10/16 04:32:07;;;;;;;;;;;;;;;;;;2082904;28;1238;-86
2021/10/16 04:33:10;;;;;;;;;;;;;;;;;;2082358;28;1910;-86
2021/10/16 04:34:12;;;;;;;;;;;;;;;;;;2082791;28;1247;-86
2021/10/16 04:35:14;;;;;;;;;;;;;;;;;;2082276;28;1285;-87
2021/10/16 04:36:15;;;;;;;;;;;;;;;;;;2074297;28;1391;-87
2021/10/16 04:37:16;;;;;;;;;;;;;;;;;;2075994;28;1852;-87
2021/10/16 04:38:17;;;;;;;;;;;;;;;;;;2082746;28;1235;-87
2021/10/16 04:39:19;;;;;;;;;;;;;;;;;;2074285;28;1291;-87
2021/10/16 04:40:21;;;;;;;;;;;;;;;;;;2082972;28;1327;-86
2021/10/16 04:41:23;;;;;;;;;;;;;;;;;;2082821;28;1293;-86
2021/10/16 04:42:24;;;;;;;;;;;;;;;;;;2077911;28;2018;-86
2021/10/16 04:43:26;;;;;;;;;;;;;;;;;;2074599;28;1263;-86
2021/10/16 04:44:29;;;;;;;;;;;;;;;;;;2082580;28;1236;-87
2021/10/16 04:45:31;;;;;;;;;;;;;;;;;;2083707;28;2075;-86
2021/10/16 04:46:32;;;;;;;;;;;;;;;;;;2083193;28;1279;-86
2021/10/16 04:47:38;;;;;;;;;;;;;;;;;;2076477;28;1402;-85
2021/10/16 04:48:39;;;;;;;;;;;;;;;;;;2076722;28;1259;-87
2021/10/16 04:49:41;;;;;;;;;;;;;;;;;;2076033;28;1319;-86
2021/10/16 04:50:45;;;;;;;;;;;;;;;;;;2084565;28;1575;-85
2021/10/16 04:51:47;;;;;;;;;;;;;;;;;;2084235;28;1451;-86
2021/10/16 04:52:52;;;;;;;;;;;;;;;;;;2084921;28;1374;-86
2021/10/16 04:54:02;;;;;;;;;;;;;;;;;;2084682;28;1906;-86
2021/10/16 04:55:03;;;;;;;;;;;;;;;;;;2084529;28;1188;-85
2021/10/16 04:56:06;;;;;;;;;;;;;;;;;;2084349;28;1141;-86
2021/10/16 04:57:07;;;;;;;;;;;;;;;;;;2076878;28;2027;-86
2021/10/16 04:58:09;;;;;;;;;;;;;;;;;;2092163;28;1248;-86
2021/10/16 04:59:17;;;;;;;;;;;;;;;;;;2084311;28;1171;-86
2021/10/16 05:00:22;;;;;;;;;;;;;;;;;;2084398;28;1219;-87
2021/10/16 05:01:22;;;;;;;;;;;;;;;;;;2075515;28;1364;-86
2021/10/16 05:02:25;;;;;;;;;;;;;;;;;;2071571;28;1297;-86
2021/10/16 05:03:27;;;;;;;;;;;;;;;;;;2084178;28;1405;-86
2021/10/16 05:04:29;;;;;;;;;;;;;;;;;;2084013;28;1354;-86
2021/10/16 05:05:33;;;;;;;;;;;;;;;;;;2084102;28;2001;-85
2021/10/16 05:06:36;;;;;;;;;;;;;;;;;;2092529;28;1278;-86
2021/10/16 05:07:37;;;;;;;;;;;;;;;;;;2086881;28;2057;-86
2021/10/16 05:08:41;;;;;;;;;;;;;;;;;;2084122;28;1375;-86
2021/10/16 05:09:42;;;;;;;;;;;;;;;;;;2084098;28;1359;-86
2021/10/16 05:10:47;;;;;;;;;;;;;;;;;;2084267;28;1485;-86
2021/10/16 05:11:48;;;;;;;;;;;;;;;;;;2084421;28;1457;-86
2021/10/16 05:12:51;;;;;;;;;;;;;;;;;;2076109;28;1317;-86
2021/10/16 05:13:52;;;;;;;;;;;;;;;;;;2067323;28;1969;-86
2021/10/16 05:14:55;;;;;;;;;;;;;;;;;;2075862;28;1103;-86
2021/10/16 05:15:58;;;;;;;;;;;;;;;;;;2088993;28;1251;-86
2021/10/16 05:17:02;;;;;;;;;;;;;;;;;;2092203;28;1375;-86
2021/10/16 05:18:04;;;;;;;;;;;;;;;;;;2084165;28;1415;-86
2021/10/16 05:19:16;;;;;;;;;;;;;;;;;;2077399;28;1307;-86
2021/10/16 05:20:17;;;;;;;;;;;;;;;;;;2075405;28;1486;-86
2021/10/16 05:21:25;;;;;;;;;;;;;;;;;;2084910;28;1174;-86
2021/10/16 05:22:26;;;;;;;;;;;;;;;;;;2083771;28;1231;-86
2021/10/16 05:23:28;;;;;;;;;;;;;;;;;;2083488;28;1295;-85
2021/10/16 05:24:30;;;;;;;;;;;;;;;;;;2092343;28;1225;-86
2021/10/16 05:25:33;;;;;;;;;;;;;;;;;;2091697;28;2043;-79
2021/10/16 05:26:34;;;;;;;;;;;;;;;;;;2082824;28;1426;-80
2021/10/16 05:27:38;;;;;;;;;;;;;;;;;;2079039;28;2058;-80
2021/10/16 05:28:40;;;;;;;;;;;;;;;;;;2083659;28;1430;-80
2021/10/16 05:29:41;;;;;;;;;;;;;;;;;;2075195;28;1708;-80
2021/10/16 05:30:44;;;;;;;;;;;;;;;;;;2078720;28;1422;-80
2021/10/16 05:31:46;;;;;;;;;;;;;;;;;;2091667;28;1309;-80
2021/10/16 05:32:51;;;;;;;;;;;;;;;;;;2083281;28;1469;-81
2021/10/16 05:33:53;;;;;;;;;;;;;;;;;;2083377;28;1985;-80
2021/10/16 05:34:55;;;;;;;;;;;;;;;;;;2091820;28;1437;-80
2021/10/16 05:35:57;;;;;;;;;;;;;;;;;;2090701;28;2043;-79
2021/10/16 05:36:59;;;;;;;;;;;;;;;;;;2075344;28;1426;-81
2021/10/16 05:38:00;;;;;;;;;;;;;;;;;;2083033;28;1366;-80
2021/10/16 05:39:03;;;;;;;;;;;;;;;;;;2083451;28;1330;-80
2021/10/16 05:40:04;;;;;;;;;;;;;;;;;;2083573;28;1595;-80
2021/10/16 05:41:07;;;;;;;;;;;;;;;;;;2082529;28;1942;-80
2021/10/16 05:42:08;;;;;;;;;;;;;;;;;;2083700;28;1574;-81
2021/10/16 05:43:10;;;;;;;;;;;;;;;;;;2082967;28;1429;-80
2021/10/16 05:44:12;;;;;;;;;;;;;;;;;;2075068;28;1362;-80
2021/10/16 05:45:14;;;;;;;;;;;;;;;;;;2083170;28;1834;-80
2021/10/16 05:46:17;;;;;;;;;;;;;;;;;;2083998;28;2007;-80
2021/10/16 05:47:20;;;;;;;;;;;;;;;;;;2074980;28;1356;-80
2021/10/16 05:48:21;;;;;;;;;;;;;;;;;;2075247;28;1256;-80
2021/10/16 05:49:23;;;;;;;;;;;;;;;;;;2074781;28;1349;-80
2021/10/16 05:50:24;;;;;;;;;;;;;;;;;;2075279;28;2061;-81
2021/10/16 05:51:25;;;;;;;;;;;;;;;;;;2074381;28;1265;-80
2021/10/16 05:52:26;;;;;;;;;;;;;;;;;;2074974;28;2169;-81
2021/10/16 05:53:28;;;;;;;;;;;;;;;;;;2080731;28;1491;-80
2021/10/16 05:54:29;;;;;;;;;;;;;;;;;;2082233;28;1977;-80
2021/10/16 05:55:33;;;;;;;;;;;;;;;;;;2080748;28;2052;-79
2021/10/16 05:56:34;;;;;;;;;;;;;;;;;;2075029;28;1391;-80
2021/10/16 05:57:36;;;;;;;;;;;;;;;;;;2076152;28;1361;-80
2021/10/16 05:58:38;;;;;;;;;;;;;;;;;;2074858;28;1490;-80
2021/10/16 05:59:40;;;;;;;;;;;;;;;;;;2075209;28;1276;-80
2021/10/16 06:00:41;;;;;;;;;;;;;;;;;;2086573;28;2008;-80
2021/10/16 06:01:43;;;;;;;;;;;;;;;;;;2077242;28;1448;-80
2021/10/16 06:02:46;;;;;;;;;;;;;;;;;;2074926;28;2043;-80
2021/10/16 06:03:54;;;;;;;;;;;;;;;;;;2067782;28;1374;-80
2021/10/16 06:04:55;;;;;;;;;;;;;;;;;;2074664;28;1244;-80
2021/10/16 06:05:57;;;;;;;;;;;;;;;;;;2086995;28;1992;-80
2021/10/16 06:06:59;;;;;;;;;;;;;;;;;;2075109;28;1059;-81
2021/10/16 06:08:01;;;;;;;;;;;;;;;;;;2075071;28;1631;-80
2021/10/16 06:09:02;;;;;;;;;;;;;;;;;;2082701;28;1472;-80
2021/10/16 06:10:05;;;;;;;;;;;;;;;;;;2075297;28;1379;-79
2021/10/16 06:11:07;;;;;;;;;;;;;;;;;;2076623;28;1676;-80
2021/10/16 06:12:07;;;;;;;;;;;;;;;;;;2069381;28;1262;-80
2021/10/16 06:13:09;;;;;;;;;;;;;;;;;;2083287;28;1462;-81
2021/10/16 06:14:10;;;;;;;;;;;;;;;;;;2083260;28;1914;-80
2021/10/16 06:15:14;;;;;;;;;;;;;;;;;;2074843;28;2013;-80
2021/10/16 06:16:15;;;;;;;;;;;;;;;;;;2075031;28;2099;-80
2021/10/16 06:17:17;;;;;;;;;;;;;;;;;;2082435;28;1837;-80
2021/10/16 06:18:23;;;;;;;;;;;;;;;;;;2091525;28;1535;-80
2021/10/16 06:19:25;;;;;;;;;;;;;;;;;;2075679;28;1394;-80
2021/10/16 06:20:30;;;;;;;;;;;;;;;;;;2082398;28;1981;-80
2021/10/16 06:21:32;;;;;;;;;;;;;;;;;;2090600;28;1634;-80
2021/10/16 06:22:33;;;;;;;;;;;;;;;;;;2082288;28;2085;-80
2021/10/16 06:23:36;;;;;;;;;;;;;;;;;;2082665;28;1355;-80
2021/10/16 06:24:36;;;;;;;;;;;;;;;;;;2083216;28;1402;-81
2021/10/16 06:25:39;;;;;;;;;;;;;;;;;;2083091;28;1366;-80
2021/10/16 06:26:40;;;;;;;;;;;;;;;;;;2075087;28;1401;-80
2021/10/16 06:27:42;;;;;;;;;;;;;;;;;;2080691;28;2101;-80
2021/10/16 06:28:44;;;;;;;;;;;;;;;;;;2081981;28;1313;-81
2021/10/16 06:29:45;;;;;;;;;;;;;;;;;;2074676;28;1269;-80
2021/10/16 06:30:47;;;;;;;;;;;;;;;;;;2077770;28;2049;-80
2021/10/16 06:31:48;;;;;;;;;;;;;;;;;;2074812;28;1575;-80
2021/10/16 06:32:50;;;;;;;;;;;;;;;;;;2072794;28;1179;-80
2021/10/16 06:33:52;;;;;;;;;;;;;;;;;;2082781;28;1910;-80
2021/10/16 06:34:54;;;;;;;;;;;;;;;;;;2082923;28;1839;-80
2021/10/16 06:35:55;;;;;;;;;;;;;;;;;;2073602;28;1902;-80
2021/10/16 06:37:10;;;;;;;;;;;;;;;;;;2075147;28;1844;-81
2021/10/16 06:38:11;;;;;;;;;;;;;;;;;;2074953;28;1469;-80
2021/10/16 06:39:13;;;;;;;;;;;;;;;;;;2075024;28;1553;-80
2021/10/16 06:40:21;;;;;;;;;;;;;;;;;;2066659;28;1819;-80
2021/10/16 06:41:29;;;;;;;;;;;;;;;;;;2067595;28;1594;-80
2021/10/16 06:43:06;;;;;;;;;;;;;;;;;;2069801;28;1187;-80
2021/10/16 06:44:26;;;;;;;;;;;;;;;;;;2067175;28;599;-80
2021/10/16 06:45:57;;;;;;;;;;;;;;;;;;2053017;28;2031;-80
2021/10/16 06:47:11;;;;;;;;;;;;;;;;;;2052112;28;1895;-80
2021/10/16 06:48:12;;;;;;;;;;;;;;;;;;2075123;28;1468;-81
2021/10/16 06:49:38;;;;;;;;;;;;;;;;;;2063720;28;1324;-81
2021/10/16 06:50:40;;;;;;;;;;;;;;;;;;2076709;28;1274;-81
2021/10/16 06:51:43;;;;;;;;;;;;;;;;;;2074702;28;1264;-81
2021/10/16 06:52:45;;;;;;;;;;;;;;;;;;2076194;28;1509;-80
2021/10/16 06:53:47;;;;;;;;;;;;;;;;;;2082918;28;1783;-80
2021/10/16 06:54:48;;;;;;;;;;;;;;;;;;2074710;28;1969;-81
2021/10/16 06:55:51;;;;;;;;;;;;;;;;;;2074434;28;1855;-81
2021/10/16 06:56:51;;;;;;;;;;;;;;;;;;2074610;28;1504;-80
2021/10/16 06:57:54;;;;;;;;;;;;;;;;;;2066783;28;1890;-80
2021/10/16 06:58:55;;;;;;;;;;;;;;;;;;2074790;28;1273;-80
2021/10/16 06:59:57;;;;;;;;;;;;;;;;;;2066198;28;1237;-80
2021/10/16 07:00:57;;;;;;;;;;;;;;;;;;2062971;28;2005;-81
2021/10/16 07:02:18;;;;;;;;;;;;;;;;;;2069017;28;1999;-80
2021/10/16 07:03:27;;;;;;;;;;;;;;;;;;2074599;28;1300;-80
2021/10/16 07:04:29;;;;;;;;;;;;;;;;;;2074868;28;1780;-80
2021/10/16 07:05:34;;;;;;;;;;;;;;;;;;2071556;28;1678;-80
2021/10/16 07:06:38;;;;;;;;;;;;;;;;;;2066640;28;1540;-80
2021/10/16 07:07:39;;;;;;;;;;;;;;;;;;2079275;28;2043;-80
2021/10/16 07:08:40;;;;;;;;;;;;;;;;;;2082533;28;1377;-80
2021/10/16 07:09:42;;;;;;;;;;;;;;;;;;2079602;28;1583;-80
2021/10/16 07:10:43;;;;;;;;;;;;;;;;;;2079293;28;1923;-80
2021/10/16 07:11:44;;;;;;;;;;;;;;;;;;2066456;28;1323;-79
2021/10/16 07:12:46;;;;;;;;;;;;;;;;;;2068371;28;1892;-80
2021/10/16 07:13:47;;;;;;;;;;;;;;;;;;2058328;28;1547;-80
2021/10/16 07:14:49;;;;;;;;;;;;;;;;;;2058140;28;1980;-80
2021/10/16 07:15:49;;;;;;;;;;;;;;;;;;2077354;28;1831;-80
2021/10/16 07:16:51;;;;;;;;;;;;;;;;;;2074377;28;1364;-80
2021/10/16 07:17:52;;;;;;;;;;;;;;;;;;2066293;28;1987;-80